Saint Joseph, Illinois
Current Conditions -  °F | °C
As of 9:53 PM on Thursday 27 Nov 2014 (Local Time) from KCMI Reporting Station
Clear Clear  
Wind Chill:   Ceiling: Unl
Heat Index: 13°   Visibility: 10mi
Dew Point:   Wind: 6mph
Humidity: 84%   Direction: 310°NW
Pressure: 30.43"   Gusts: NA
Location:  40.11°N, 88.04°W
Report Text: KCMI 280353Z 31005KT 10SM CLR M11/M13 A3043 RMK AO2 SLP316 T11061128 $
Loading
Personal Weather Stations






























Interactive Weather Map New forecast layout! Learn more

10-Day Weather Forecast

Advertisements
Track Severe Weather on mobile